sensor_id;sensor_type;location;lat;lon;timestamp;temperature;humidity
16970;DHT22;8601;48.718;8.992;2023-04-01T00:00:44;7.70;99.90
16970;DHT22;8601;48.718;8.992;2023-04-01T00:03:11;7.70;99.90
16970;DHT22;8601;48.718;8.992;2023-04-01T00:05:38;7.80;99.90
16970;DHT22;8601;48.718;8.992;2023-04-01T00:08:05;7.70;99.90
16970;DHT22;8601;48.718;8.992;2023-04-01T00:10:34;7.70;99.90
16970;DHT22;8601;48.718;8.992;2023-04-01T00:13:01;7.70;99.90
16970;DHT22;8601;48.718;8.992;2023-04-01T00:15:28;7.70;99.90
16970;DHT22;8601;48.718;8.992;2023-04-01T00:17:55;7.70;99.90
16970;DHT22;8601;48.718;8.992;2023-04-01T00:20:22;7.70;99.90
16970;DHT22;8601;48.718;8.992;2023-04-01T00:22:49;7.70;99.90
16970;DHT22;8601;48.718;8.992;2023-04-01T00:25:16;7.70;99.90
16970;DHT22;8601;48.718;8.992;2023-04-01T00:27:44;7.70;99.90
16970;DHT22;8601;48.718;8.992;2023-04-01T00:30:11;7.70;99.90
16970;DHT22;8601;48.718;8.992;2023-04-01T00:32:38;7.70;99.90
16970;DHT22;8601;48.718;8.992;2023-04-01T00:35:06;7.70;99.90
16970;DHT22;8601;48.718;8.992;2023-04-01T00:37:34;7.70;99.90
16970;DHT22;8601;48.718;8.992;2023-04-01T00:40:02;7.70;99.90
16970;DHT22;8601;48.718;8.992;2023-04-01T00:42:30;7.70;99.90
16970;DHT22;8601;48.718;8.992;2023-04-01T00:45:29;7.70;99.90
16970;DHT22;8601;48.718;8.992;2023-04-01T00:47:59;7.70;99.90
16970;DHT22;8601;48.718;8.992;2023-04-01T00:50:29;7.70;99.90
16970;DHT22;8601;48.718;8.992;2023-04-01T00:52:58;7.70;99.90
16970;DHT22;8601;48.718;8.992;2023-04-01T00:55:27;7.70;99.90
16970;DHT22;8601;48.718;8.992;2023-04-01T00:57:57;7.70;99.90
16970;DHT22;8601;48.718;8.992;2023-04-01T01:00:26;7.70;99.90
16970;DHT22;8601;48.718;8.992;2023-04-01T01:02:53;7.70;99.90
16970;DHT22;8601;48.718;8.992;2023-04-01T01:05:25;7.70;99.90
16970;DHT22;8601;48.718;8.992;2023-04-01T01:08:01;7.70;99.90
16970;DHT22;8601;48.718;8.992;2023-04-01T01:10:31;7.70;99.90
16970;DHT22;8601;48.718;8.992;2023-04-01T01:13:04;7.70;99.90
16970;DHT22;8601;48.718;8.992;2023-04-01T01:15:41;7.70;99.90
16970;DHT22;8601;48.718;8.992;2023-04-01T01:18:18;7.70;99.90
16970;DHT22;8601;48.718;8.992;2023-04-01T01:21:03;7.70;99.90
16970;DHT22;8601;48.718;8.992;2023-04-01T01:26:53;7.60;99.90
16970;DHT22;8601;48.718;8.992;2023-04-01T01:32:31;7.70;99.90
16970;DHT22;8601;48.718;8.992;2023-04-01T01:35:14;7.70;99.90
16970;DHT22;8601;48.718;8.992;2023-04-01T01:37:43;7.70;99.90
16970;DHT22;8601;48.718;8.992;2023-04-01T01:40:13;7.60;99.90
16970;DHT22;8601;48.718;8.992;2023-04-01T01:42:45;7.70;99.90
16970;DHT22;8601;48.718;8.992;2023-04-01T01:45:15;7.60;99.90
16970;DHT22;8601;48.718;8.992;2023-04-01T01:47:44;7.60;99.90
16970;DHT22;8601;48.718;8.992;2023-04-01T01:50:13;7.60;99.90
16970;DHT22;8601;48.718;8.992;2023-04-01T01:52:41;7.60;99.90
16970;DHT22;8601;48.718;8.992;2023-04-01T01:55:24;7.50;99.90
16970;DHT22;8601;48.718;8.992;2023-04-01T01:57:52;7.50;99.90
16970;DHT22;8601;48.718;8.992;2023-04-01T02:00:21;7.60;99.90
16970;DHT22;8601;48.718;8.992;2023-04-01T02:02:48;7.60;99.90
16970;DHT22;8601;48.718;8.992;2023-04-01T02:05:21;7.60;99.90
16970;DHT22;8601;48.718;8.992;2023-04-01T02:07:54;7.60;99.90
16970;DHT22;8601;48.718;8.992;2023-04-01T02:10:24;7.60;99.90
16970;DHT22;8601;48.718;8.992;2023-04-01T02:12:52;7.60;99.90
16970;DHT22;8601;48.718;8.992;2023-04-01T02:15:21;7.60;99.90
16970;DHT22;8601;48.718;8.992;2023-04-01T02:17:49;7.60;99.90
16970;DHT22;8601;48.718;8.992;2023-04-01T02:20:20;7.50;99.90
16970;DHT22;8601;48.718;8.992;2023-04-01T02:22:50;7.60;99.90
16970;DHT22;8601;48.718;8.992;2023-04-01T02:25:20;7.60;99.90
16970;DHT22;8601;48.718;8.992;2023-04-01T02:27:50;7.50;99.90
16970;DHT22;8601;48.718;8.992;2023-04-01T02:30:17;7.50;99.90
16970;DHT22;8601;48.718;8.992;2023-04-01T02:32:45;7.40;99.90
16970;DHT22;8601;48.718;8.992;2023-04-01T02:35:14;7.50;99.90
16970;DHT22;8601;48.718;8.992;2023-04-01T02:37:45;7.50;99.90
16970;DHT22;8601;48.718;8.992;2023-04-01T02:40:16;7.50;99.90
16970;DHT22;8601;48.718;8.992;2023-04-01T02:42:43;7.50;99.90
16970;DHT22;8601;48.718;8.992;2023-04-01T02:45:11;7.50;99.90
16970;DHT22;8601;48.718;8.992;2023-04-01T02:47:38;7.50;99.90
16970;DHT22;8601;48.718;8.992;2023-04-01T02:50:07;7.50;99.90
16970;DHT22;8601;48.718;8.992;2023-04-01T02:52:34;7.40;99.90
16970;DHT22;8601;48.718;8.992;2023-04-01T02:55:03;7.40;99.90
16970;DHT22;8601;48.718;8.992;2023-04-01T02:57:30;7.50;99.90
16970;DHT22;8601;48.718;8.992;2023-04-01T02:59:57;7.40;99.90
16970;DHT22;8601;48.718;8.992;2023-04-01T03:02:24;7.40;99.90
16970;DHT22;8601;48.718;8.992;2023-04-01T03:04:52;7.40;99.90
16970;DHT22;8601;48.718;8.992;2023-04-01T03:07:19;7.30;99.90
16970;DHT22;8601;48.718;8.992;2023-04-01T03:09:46;7.30;99.90
16970;DHT22;8601;48.718;8.992;2023-04-01T03:12:14;7.30;99.90
16970;DHT22;8601;48.718;8.992;2023-04-01T03:14:41;7.30;99.90
16970;DHT22;8601;48.718;8.992;2023-04-01T03:17:08;7.30;99.90
16970;DHT22;8601;48.718;8.992;2023-04-01T03:19:35;7.30;99.90
16970;DHT22;8601;48.718;8.992;2023-04-01T03:22:01;7.20;99.90
16970;DHT22;8601;48.718;8.992;2023-04-01T03:24:28;7.20;99.90
16970;DHT22;8601;48.718;8.992;2023-04-01T03:26:55;7.20;99.90
16970;DHT22;8601;48.718;8.992;2023-04-01T03:29:24;7.20;99.90
16970;DHT22;8601;48.718;8.992;2023-04-01T03:31:51;7.30;99.90
16970;DHT22;8601;48.718;8.992;2023-04-01T03:34:18;7.30;99.90
16970;DHT22;8601;48.718;8.992;2023-04-01T03:36:45;7.30;99.90
16970;DHT22;8601;48.718;8.992;2023-04-01T03:39:11;7.30;99.90
16970;DHT22;8601;48.718;8.992;2023-04-01T03:41:38;7.30;99.90
16970;DHT22;8601;48.718;8.992;2023-04-01T03:44:05;7.30;99.90
16970;DHT22;8601;48.718;8.992;2023-04-01T03:46:34;7.30;99.90
16970;DHT22;8601;48.718;8.992;2023-04-01T03:49:01;7.30;99.90
16970;DHT22;8601;48.718;8.992;2023-04-01T03:51:28;7.30;99.90
16970;DHT22;8601;48.718;8.992;2023-04-01T03:53:55;7.30;99.90
16970;DHT22;8601;48.718;8.992;2023-04-01T03:56:22;7.30;99.90
16970;DHT22;8601;48.718;8.992;2023-04-01T03:58:49;7.20;99.90
16970;DHT22;8601;48.718;8.992;2023-04-01T04:01:18;7.20;99.90
16970;DHT22;8601;48.718;8.992;2023-04-01T04:03:47;7.20;99.90
16970;DHT22;8601;48.718;8.992;2023-04-01T04:06:16;7.10;99.90
16970;DHT22;8601;48.718;8.992;2023-04-01T04:08:43;7.10;99.90
16970;DHT22;8601;48.718;8.992;2023-04-01T04:11:11;7.10;99.90
16970;DHT22;8601;48.718;8.992;2023-04-01T04:13:38;7.10;99.90
16970;DHT22;8601;48.718;8.992;2023-04-01T04:16:05;7.00;99.90
16970;DHT22;8601;48.718;8.992;2023-04-01T04:18:33;7.00;99.90
16970;DHT22;8601;48.718;8.992;2023-04-01T04:21:02;7.00;99.90
16970;DHT22;8601;48.718;8.992;2023-04-01T04:23:29;7.00;99.90
16970;DHT22;8601;48.718;8.992;2023-04-01T04:26:00;7.00;99.90
16970;DHT22;8601;48.718;8.992;2023-04-01T04:28:28;7.00;99.90
16970;DHT22;8601;48.718;8.992;2023-04-01T04:30:55;7.00;99.90
16970;DHT22;8601;48.718;8.992;2023-04-01T04:33:23;6.90;99.90
16970;DHT22;8601;48.718;8.992;2023-04-01T04:35:51;6.90;99.90
16970;DHT22;8601;48.718;8.992;2023-04-01T04:38:19;6.80;99.90
16970;DHT22;8601;48.718;8.992;2023-04-01T04:40:46;6.70;99.90
16970;DHT22;8601;48.718;8.992;2023-04-01T04:43:15;6.70;99.90
16970;DHT22;8601;48.718;8.992;2023-04-01T04:45:42;6.70;99.90
16970;DHT22;8601;48.718;8.992;2023-04-01T04:48:09;6.70;99.90
16970;DHT22;8601;48.718;8.992;2023-04-01T04:50:40;6.70;99.90
16970;DHT22;8601;48.718;8.992;2023-04-01T04:53:08;6.70;99.90
16970;DHT22;8601;48.718;8.992;2023-04-01T04:55:37;6.70;99.90
16970;DHT22;8601;48.718;8.992;2023-04-01T04:58:06;6.60;99.90
16970;DHT22;8601;48.718;8.992;2023-04-01T05:00:33;6.60;99.90
16970;DHT22;8601;48.718;8.992;2023-04-01T05:03:00;6.70;99.90
16970;DHT22;8601;48.718;8.992;2023-04-01T05:05:27;6.70;99.90
16970;DHT22;8601;48.718;8.992;2023-04-01T05:07:54;6.70;99.90
16970;DHT22;8601;48.718;8.992;2023-04-01T05:10:20;6.70;99.90
16970;DHT22;8601;48.718;8.992;2023-04-01T05:12:49;6.70;99.90
16970;DHT22;8601;48.718;8.992;2023-04-01T05:15:17;6.80;99.90
16970;DHT22;8601;48.718;8.992;2023-04-01T05:17:44;6.80;99.90
16970;DHT22;8601;48.718;8.992;2023-04-01T05:20:11;6.80;99.90
16970;DHT22;8601;48.718;8.992;2023-04-01T05:22:39;6.90;99.90
16970;DHT22;8601;48.718;8.992;2023-04-01T05:25:07;7.00;99.90
16970;DHT22;8601;48.718;8.992;2023-04-01T05:27:34;7.00;99.90
16970;DHT22;8601;48.718;8.992;2023-04-01T05:30:03;7.10;99.90
16970;DHT22;8601;48.718;8.992;2023-04-01T05:32:31;7.10;99.90
16970;DHT22;8601;48.718;8.992;2023-04-01T05:34:58;7.10;99.90
16970;DHT22;8601;48.718;8.992;2023-04-01T05:37:25;7.20;99.90
16970;DHT22;8601;48.718;8.992;2023-04-01T05:39:51;7.20;99.90
16970;DHT22;8601;48.718;8.992;2023-04-01T05:42:18;7.20;99.90
16970;DHT22;8601;48.718;8.992;2023-04-01T05:44:45;7.20;99.90
16970;DHT22;8601;48.718;8.992;2023-04-01T05:47:14;7.20;99.90
16970;DHT22;8601;48.718;8.992;2023-04-01T05:49:41;7.30;99.90
16970;DHT22;8601;48.718;8.992;2023-04-01T05:52:08;7.30;99.90
16970;DHT22;8601;48.718;8.992;2023-04-01T05:54:35;7.30;99.90
16970;DHT22;8601;48.718;8.992;2023-04-01T05:57:02;7.30;99.90
16970;DHT22;8601;48.718;8.992;2023-04-01T05:59:29;7.30;99.90
16970;DHT22;8601;48.718;8.992;2023-04-01T06:01:56;7.40;99.90
16970;DHT22;8601;48.718;8.992;2023-04-01T06:04:24;7.30;99.90
16970;DHT22;8601;48.718;8.992;2023-04-01T06:06:51;7.40;99.90
16970;DHT22;8601;48.718;8.992;2023-04-01T06:09:21;7.40;99.90
16970;DHT22;8601;48.718;8.992;2023-04-01T06:12:15;7.40;99.90
16970;DHT22;8601;48.718;8.992;2023-04-01T06:14:51;7.40;99.90
16970;DHT22;8601;48.718;8.992;2023-04-01T06:17:41;7.50;99.90
16970;DHT22;8601;48.718;8.992;2023-04-01T06:20:20;7.50;99.90
16970;DHT22;8601;48.718;8.992;2023-04-01T06:23:09;7.60;99.90
16970;DHT22;8601;48.718;8.992;2023-04-01T06:25:53;7.60;99.90
16970;DHT22;8601;48.718;8.992;2023-04-01T06:28:42;7.60;99.90
16970;DHT22;8601;48.718;8.992;2023-04-01T06:31:19;7.60;99.90
16970;DHT22;8601;48.718;8.992;2023-04-01T06:34:00;7.60;99.90
16970;DHT22;8601;48.718;8.992;2023-04-01T06:36:46;7.60;99.90
16970;DHT22;8601;48.718;8.992;2023-04-01T06:39:35;7.60;99.90
16970;DHT22;8601;48.718;8.992;2023-04-01T06:42:26;7.50;99.90
16970;DHT22;8601;48.718;8.992;2023-04-01T06:45:07;7.60;99.90
16970;DHT22;8601;48.718;8.992;2023-04-01T06:47:46;7.50;99.90
16970;DHT22;8601;48.718;8.992;2023-04-01T06:50:20;7.60;99.90
16970;DHT22;8601;48.718;8.992;2023-04-01T06:52:54;7.60;99.90
16970;DHT22;8601;48.718;8.992;2023-04-01T06:55:29;7.60;99.90
16970;DHT22;8601;48.718;8.992;2023-04-01T06:58:00;7.60;99.90
16970;DHT22;8601;48.718;8.992;2023-04-01T07:00:32;7.60;99.90
16970;DHT22;8601;48.718;8.992;2023-04-01T07:03:16;7.70;99.90
16970;DHT22;8601;48.718;8.992;2023-04-01T07:05:45;7.70;99.90
16970;DHT22;8601;48.718;8.992;2023-04-01T07:08:18;7.70;99.90
16970;DHT22;8601;48.718;8.992;2023-04-01T07:10:49;7.70;99.90
16970;DHT22;8601;48.718;8.992;2023-04-01T07:13:20;7.70;99.90
16970;DHT22;8601;48.718;8.992;2023-04-01T07:15:58;7.70;99.90
16970;DHT22;8601;48.718;8.992;2023-04-01T07:18:32;7.70;99.90
16970;DHT22;8601;48.718;8.992;2023-04-01T07:21:01;7.70;99.90
16970;DHT22;8601;48.718;8.992;2023-04-01T07:23:33;7.60;99.90
16970;DHT22;8601;48.718;8.992;2023-04-01T07:26:11;7.60;99.90
16970;DHT22;8601;48.718;8.992;2023-04-01T07:28:41;7.70;99.90
16970;DHT22;8601;48.718;8.992;2023-04-01T07:31:16;7.70;99.90
16970;DHT22;8601;48.718;8.992;2023-04-01T07:33:53;7.70;99.90
16970;DHT22;8601;48.718;8.992;2023-04-01T07:36:26;7.70;99.90
16970;DHT22;8601;48.718;8.992;2023-04-01T07:39:07;7.70;99.90
16970;DHT22;8601;48.718;8.992;2023-04-01T07:41:44;7.70;99.90
16970;DHT22;8601;48.718;8.992;2023-04-01T07:44:24;7.80;99.90
16970;DHT22;8601;48.718;8.992;2023-04-01T07:47:07;7.80;99.90
16970;DHT22;8601;48.718;8.992;2023-04-01T07:49:41;7.80;99.90
16970;DHT22;8601;48.718;8.992;2023-04-01T07:52:16;7.80;99.90
16970;DHT22;8601;48.718;8.992;2023-04-01T07:54:51;7.90;99.90
16970;DHT22;8601;48.718;8.992;2023-04-01T07:57:24;7.90;99.90
16970;DHT22;8601;48.718;8.992;2023-04-01T07:59:59;7.90;99.90
16970;DHT22;8601;48.718;8.992;2023-04-01T08:02:41;7.90;99.90
16970;DHT22;8601;48.718;8.992;2023-04-01T08:05:17;8.00;99.90
16970;DHT22;8601;48.718;8.992;2023-04-01T08:07:53;8.10;99.90
16970;DHT22;8601;48.718;8.992;2023-04-01T08:10:30;8.10;99.90
16970;DHT22;8601;48.718;8.992;2023-04-01T08:13:06;8.10;99.90
16970;DHT22;8601;48.718;8.992;2023-04-01T08:15:38;8.00;99.90
16970;DHT22;8601;48.718;8.992;2023-04-01T08:18:17;8.00;99.90
16970;DHT22;8601;48.718;8.992;2023-04-01T08:20:50;8.00;99.90
16970;DHT22;8601;48.718;8.992;2023-04-01T08:23:20;8.00;99.90
16970;DHT22;8601;48.718;8.992;2023-04-01T08:25:54;8.00;99.90
16970;DHT22;8601;48.718;8.992;2023-04-01T08:28:27;8.00;99.90
16970;DHT22;8601;48.718;8.992;2023-04-01T08:31:01;8.00;99.90
16970;DHT22;8601;48.718;8.992;2023-04-01T08:33:31;7.90;99.90
16970;DHT22;8601;48.718;8.992;2023-04-01T08:36:03;7.90;99.90
16970;DHT22;8601;48.718;8.992;2023-04-01T08:38:36;7.90;99.90
16970;DHT22;8601;48.718;8.992;2023-04-01T08:41:20;7.90;99.90
16970;DHT22;8601;48.718;8.992;2023-04-01T08:44:10;7.80;99.90
16970;DHT22;8601;48.718;8.992;2023-04-01T08:47:02;7.80;99.90
16970;DHT22;8601;48.718;8.992;2023-04-01T08:50:06;7.70;99.90
16970;DHT22;8601;48.718;8.992;2023-04-01T08:52:47;7.80;99.90
16970;DHT22;8601;48.718;8.992;2023-04-01T08:55:44;7.70;99.90
16970;DHT22;8601;48.718;8.992;2023-04-01T08:58:46;7.80;99.90
16970;DHT22;8601;48.718;8.992;2023-04-01T09:01:25;7.80;99.90
16970;DHT22;8601;48.718;8.992;2023-04-01T09:06:58;7.90;99.90
16970;DHT22;8601;48.718;8.992;2023-04-01T09:10:00;8.00;99.90
16970;DHT22;8601;48.718;8.992;2023-04-01T09:12:39;8.00;99.90
16970;DHT22;8601;48.718;8.992;2023-04-01T09:15:37;8.20;99.90
16970;DHT22;8601;48.718;8.992;2023-04-01T09:18:39;8.40;99.90
16970;DHT22;8601;48.718;8.992;2023-04-01T09:21:27;8.60;99.90
16970;DHT22;8601;48.718;8.992;2023-04-01T09:24:19;8.90;99.90
16970;DHT22;8601;48.718;8.992;2023-04-01T09:27:02;8.80;99.90
16970;DHT22;8601;48.718;8.992;2023-04-01T09:33:01;8.60;99.90
16970;DHT22;8601;48.718;8.992;2023-04-01T09:35:39;8.40;99.90
16970;DHT22;8601;48.718;8.992;2023-04-01T09:38:22;8.40;99.90
16970;DHT22;8601;48.718;8.992;2023-04-01T09:40:55;8.20;99.90
16970;DHT22;8601;48.718;8.992;2023-04-01T09:43:26;8.20;99.90
16970;DHT22;8601;48.718;8.992;2023-04-01T09:46:11;8.20;99.90
16970;DHT22;8601;48.718;8.992;2023-04-01T09:49:12;8.20;99.90
16970;DHT22;8601;48.718;8.992;2023-04-01T09:51:53;8.20;99.90
16970;DHT22;8601;48.718;8.992;2023-04-01T09:54:36;8.20;99.90
16970;DHT22;8601;48.718;8.992;2023-04-01T09:57:42;8.20;99.90
16970;DHT22;8601;48.718;8.992;2023-04-01T10:09:47;8.20;99.90
16970;DHT22;8601;48.718;8.992;2023-04-01T10:13:04;8.30;99.90
16970;DHT22;8601;48.718;8.992;2023-04-01T10:16:03;8.30;99.90
16970;DHT22;8601;48.718;8.992;2023-04-01T10:22:16;8.40;99.90
16970;DHT22;8601;48.718;8.992;2023-04-01T10:25:19;8.50;99.90
16970;DHT22;8601;48.718;8.992;2023-04-01T10:31:11;8.80;99.90
16970;DHT22;8601;48.718;8.992;2023-04-01T10:36:53;9.10;99.90
16970;DHT22;8601;48.718;8.992;2023-04-01T10:39:34;9.50;99.90
16970;DHT22;8601;48.718;8.992;2023-04-01T10:45:25;9.60;99.90
16970;DHT22;8601;48.718;8.992;2023-04-01T10:51:17;9.70;99.90
16970;DHT22;8601;48.718;8.992;2023-04-01T10:56:55;9.70;99.90
16970;DHT22;8601;48.718;8.992;2023-04-01T10:59:45;9.40;99.90
16970;DHT22;8601;48.718;8.992;2023-04-01T11:18:57;9.30;99.90
16970;DHT22;8601;48.718;8.992;2023-04-01T11:31:09;9.50;99.90
16970;DHT22;8601;48.718;8.992;2023-04-01T11:33:43;9.50;99.90
16970;DHT22;8601;48.718;8.992;2023-04-01T11:36:30;9.40;99.90
16970;DHT22;8601;48.718;8.992;2023-04-01T11:39:15;9.40;99.90
16970;DHT22;8601;48.718;8.992;2023-04-01T11:41:54;9.50;99.90
16970;DHT22;8601;48.718;8.992;2023-04-01T11:44:25;9.40;99.90
16970;DHT22;8601;48.718;8.992;2023-04-01T11:47:07;9.30;99.90
16970;DHT22;8601;48.718;8.992;2023-04-01T11:49:47;9.40;99.90
16970;DHT22;8601;48.718;8.992;2023-04-01T11:52:38;9.30;99.90
16970;DHT22;8601;48.718;8.992;2023-04-01T11:55:25;9.20;99.90
16970;DHT22;8601;48.718;8.992;2023-04-01T11:58:09;9.40;99.90
16970;DHT22;8601;48.718;8.992;2023-04-01T12:04:30;9.40;99.90
16970;DHT22;8601;48.718;8.992;2023-04-01T12:07:06;9.50;99.90
16970;DHT22;8601;48.718;8.992;2023-04-01T12:09:46;9.50;99.90
16970;DHT22;8601;48.718;8.992;2023-04-01T12:12:24;9.50;99.90
16970;DHT22;8601;48.718;8.992;2023-04-01T12:15:00;9.60;99.90
16970;DHT22;8601;48.718;8.992;2023-04-01T12:17:35;9.50;99.90
16970;DHT22;8601;48.718;8.992;2023-04-01T12:20:25;9.50;99.90
16970;DHT22;8601;48.718;8.992;2023-04-01T12:23:01;9.50;99.90
16970;DHT22;8601;48.718;8.992;2023-04-01T12:28:41;9.40;99.90
16970;DHT22;8601;48.718;8.992;2023-04-01T12:31:20;9.40;99.90
16970;DHT22;8601;48.718;8.992;2023-04-01T12:36:54;9.70;99.90
16970;DHT22;8601;48.718;8.992;2023-04-01T12:39:58;9.70;99.90
16970;DHT22;8601;48.718;8.992;2023-04-01T12:42:41;9.60;99.90
16970;DHT22;8601;48.718;8.992;2023-04-01T12:45:35;9.80;99.90
16970;DHT22;8601;48.718;8.992;2023-04-01T12:48:27;9.70;99.90
16970;DHT22;8601;48.718;8.992;2023-04-01T12:54:17;9.70;99.90
16970;DHT22;8601;48.718;8.992;2023-04-01T12:56:56;9.90;99.90
16970;DHT22;8601;48.718;8.992;2023-04-01T12:59:40;9.90;99.90
16970;DHT22;8601;48.718;8.992;2023-04-01T13:02:16;10.00;99.90
16970;DHT22;8601;48.718;8.992;2023-04-01T13:08:12;9.90;99.90
16970;DHT22;8601;48.718;8.992;2023-04-01T13:11:02;9.90;99.90
16970;DHT22;8601;48.718;8.992;2023-04-01T13:16:29;9.80;99.90
16970;DHT22;8601;48.718;8.992;2023-04-01T13:19:01;9.80;99.90
16970;DHT22;8601;48.718;8.992;2023-04-01T13:21:38;9.80;99.90
16970;DHT22;8601;48.718;8.992;2023-04-01T13:24:17;9.80;99.90
16970;DHT22;8601;48.718;8.992;2023-04-01T13:26:56;9.80;99.90
16970;DHT22;8601;48.718;8.992;2023-04-01T13:29:28;9.80;99.90
16970;DHT22;8601;48.718;8.992;2023-04-01T13:32:21;9.80;99.90
16970;DHT22;8601;48.718;8.992;2023-04-01T13:35:20;9.60;99.90
16970;DHT22;8601;48.718;8.992;2023-04-01T13:38:00;9.60;99.90
16970;DHT22;8601;48.718;8.992;2023-04-01T13:40:35;9.70;99.90
16970;DHT22;8601;48.718;8.992;2023-04-01T13:43:11;9.60;99.90
16970;DHT22;8601;48.718;8.992;2023-04-01T13:45:49;9.70;99.90
16970;DHT22;8601;48.718;8.992;2023-04-01T13:48:36;9.70;99.90
16970;DHT22;8601;48.718;8.992;2023-04-01T13:54:24;9.60;99.90
16970;DHT22;8601;48.718;8.992;2023-04-01T13:57:06;9.60;99.90
16970;DHT22;8601;48.718;8.992;2023-04-01T13:59:45;9.60;99.90
16970;DHT22;8601;48.718;8.992;2023-04-01T14:02:29;9.60;99.90
16970;DHT22;8601;48.718;8.992;2023-04-01T14:05:20;9.70;99.90
16970;DHT22;8601;48.718;8.992;2023-04-01T14:07:59;9.80;99.90
16970;DHT22;8601;48.718;8.992;2023-04-01T14:10:35;9.60;99.90
16970;DHT22;8601;48.718;8.992;2023-04-01T14:13:11;9.50;99.90
16970;DHT22;8601;48.718;8.992;2023-04-01T14:15:52;9.60;99.90
16970;DHT22;8601;48.718;8.992;2023-04-01T14:18:37;9.50;99.90
16970;DHT22;8601;48.718;8.992;2023-04-01T14:21:23;9.60;99.90
16970;DHT22;8601;48.718;8.992;2023-04-01T14:24:08;9.60;99.90
16970;DHT22;8601;48.718;8.992;2023-04-01T14:27:09;9.50;99.90
16970;DHT22;8601;48.718;8.992;2023-04-01T14:29:45;9.50;99.90
16970;DHT22;8601;48.718;8.992;2023-04-01T14:32:20;9.50;99.90
16970;DHT22;8601;48.718;8.992;2023-04-01T14:35:05;9.70;99.90
16970;DHT22;8601;48.718;8.992;2023-04-01T14:37:55;9.70;99.90
16970;DHT22;8601;48.718;8.992;2023-04-01T14:40:27;9.60;99.90
16970;DHT22;8601;48.718;8.992;2023-04-01T14:43:16;9.70;99.90
16970;DHT22;8601;48.718;8.992;2023-04-01T14:46:08;9.60;99.90
16970;DHT22;8601;48.718;8.992;2023-04-01T14:48:38;9.60;99.90
16970;DHT22;8601;48.718;8.992;2023-04-01T14:51:10;9.60;99.90
16970;DHT22;8601;48.718;8.992;2023-04-01T14:53:50;9.60;99.90
16970;DHT22;8601;48.718;8.992;2023-04-01T14:56:39;9.50;99.90
16970;DHT22;8601;48.718;8.992;2023-04-01T14:59:10;9.60;99.90
16970;DHT22;8601;48.718;8.992;2023-04-01T15:01:46;9.50;99.90
16970;DHT22;8601;48.718;8.992;2023-04-01T15:04:41;9.50;99.90
16970;DHT22;8601;48.718;8.992;2023-04-01T15:07:21;9.50;99.90
16970;DHT22;8601;48.718;8.992;2023-04-01T15:09:59;9.50;99.90
16970;DHT22;8601;48.718;8.992;2023-04-01T15:12:32;9.50;99.90
16970;DHT22;8601;48.718;8.992;2023-04-01T15:15:20;9.70;99.90
16970;DHT22;8601;48.718;8.992;2023-04-01T15:17:58;9.60;99.90
16970;DHT22;8601;48.718;8.992;2023-04-01T15:21:04;9.60;99.90
16970;DHT22;8601;48.718;8.992;2023-04-01T15:23:45;9.50;99.90
16970;DHT22;8601;48.718;8.992;2023-04-01T15:26:47;9.60;99.90
16970;DHT22;8601;48.718;8.992;2023-04-01T15:29:42;9.50;99.90
16970;DHT22;8601;48.718;8.992;2023-04-01T15:32:16;9.50;99.90
16970;DHT22;8601;48.718;8.992;2023-04-01T15:34:50;9.70;99.90
16970;DHT22;8601;48.718;8.992;2023-04-01T15:37:30;9.60;99.90
16970;DHT22;8601;48.718;8.992;2023-04-01T15:40:11;9.60;99.90
16970;DHT22;8601;48.718;8.992;2023-04-01T15:42:55;9.70;99.90
16970;DHT22;8601;48.718;8.992;2023-04-01T15:45:36;9.70;99.90
16970;DHT22;8601;48.718;8.992;2023-04-01T15:48:18;9.60;99.90
16970;DHT22;8601;48.718;8.992;2023-04-01T15:50:57;9.50;99.90
16970;DHT22;8601;48.718;8.992;2023-04-01T15:56:28;9.40;99.90
16970;DHT22;8601;48.718;8.992;2023-04-01T15:59:07;9.40;99.90
16970;DHT22;8601;48.718;8.992;2023-04-01T16:01:42;9.40;99.90
16970;DHT22;8601;48.718;8.992;2023-04-01T16:04:47;9.30;99.90
16970;DHT22;8601;48.718;8.992;2023-04-01T16:07:38;9.10;99.90
16970;DHT22;8601;48.718;8.992;2023-04-01T16:10:16;9.10;99.90
16970;DHT22;8601;48.718;8.992;2023-04-01T16:12:53;9.10;99.90
16970;DHT22;8601;48.718;8.992;2023-04-01T16:15:29;9.00;99.90
16970;DHT22;8601;48.718;8.992;2023-04-01T16:18:18;9.00;99.90
16970;DHT22;8601;48.718;8.992;2023-04-01T16:20:51;9.00;99.90
16970;DHT22;8601;48.718;8.992;2023-04-01T16:23:24;9.00;99.90
16970;DHT22;8601;48.718;8.992;2023-04-01T16:26:01;9.10;99.90
16970;DHT22;8601;48.718;8.992;2023-04-01T16:28:31;9.20;99.90
16970;DHT22;8601;48.718;8.992;2023-04-01T16:31:06;9.20;99.90
16970;DHT22;8601;48.718;8.992;2023-04-01T16:33:43;9.30;99.90
16970;DHT22;8601;48.718;8.992;2023-04-01T16:36:22;9.40;99.90
16970;DHT22;8601;48.718;8.992;2023-04-01T16:38:56;9.40;99.90
16970;DHT22;8601;48.718;8.992;2023-04-01T16:41:31;9.40;99.90
16970;DHT22;8601;48.718;8.992;2023-04-01T16:44:10;9.40;99.90
16970;DHT22;8601;48.718;8.992;2023-04-01T16:46:41;9.40;99.90
16970;DHT22;8601;48.718;8.992;2023-04-01T16:49:36;9.30;99.90
16970;DHT22;8601;48.718;8.992;2023-04-01T16:52:14;9.30;99.90
16970;DHT22;8601;48.718;8.992;2023-04-01T16:54:46;9.30;99.90
16970;DHT22;8601;48.718;8.992;2023-04-01T16:57:19;9.30;99.90
16970;DHT22;8601;48.718;8.992;2023-04-01T16:59:55;9.30;99.90
16970;DHT22;8601;48.718;8.992;2023-04-01T17:02:30;9.30;99.90
16970;DHT22;8601;48.718;8.992;2023-04-01T17:05:03;9.30;99.90
16970;DHT22;8601;48.718;8.992;2023-04-01T17:07:41;9.30;99.90
16970;DHT22;8601;48.718;8.992;2023-04-01T17:10:26;9.30;99.90
16970;DHT22;8601;48.718;8.992;2023-04-01T17:13:06;9.30;99.90
16970;DHT22;8601;48.718;8.992;2023-04-01T17:15:44;9.30;99.90
16970;DHT22;8601;48.718;8.992;2023-04-01T17:18:21;9.20;99.90
16970;DHT22;8601;48.718;8.992;2023-04-01T17:20:54;9.20;99.90
16970;DHT22;8601;48.718;8.992;2023-04-01T17:23:29;9.20;99.90
16970;DHT22;8601;48.718;8.992;2023-04-01T17:26:17;9.80;99.90
16970;DHT22;8601;48.718;8.992;2023-04-01T17:28:50;9.50;99.90
16970;DHT22;8601;48.718;8.992;2023-04-01T17:31:33;9.50;99.90
16970;DHT22;8601;48.718;8.992;2023-04-01T17:34:30;9.40;99.90
16970;DHT22;8601;48.718;8.992;2023-04-01T17:37:10;9.30;99.90
16970;DHT22;8601;48.718;8.992;2023-04-01T17:39:47;9.30;99.90
16970;DHT22;8601;48.718;8.992;2023-04-01T17:42:21;9.20;99.90
16970;DHT22;8601;48.718;8.992;2023-04-01T17:44:56;9.20;99.90
16970;DHT22;8601;48.718;8.992;2023-04-01T17:47:43;9.20;99.90
16970;DHT22;8601;48.718;8.992;2023-04-01T17:50:22;9.20;99.90
16970;DHT22;8601;48.718;8.992;2023-04-01T17:53:01;9.20;99.90
16970;DHT22;8601;48.718;8.992;2023-04-01T17:55:46;9.10;99.90
16970;DHT22;8601;48.718;8.992;2023-04-01T17:58:18;9.00;99.90
16970;DHT22;8601;48.718;8.992;2023-04-01T18:01:09;9.00;99.90
16970;DHT22;8601;48.718;8.992;2023-04-01T18:04:03;9.00;99.90
16970;DHT22;8601;48.718;8.992;2023-04-01T18:06:43;8.90;99.90
16970;DHT22;8601;48.718;8.992;2023-04-01T18:09:24;8.80;99.90
16970;DHT22;8601;48.718;8.992;2023-04-01T18:12:01;8.70;99.90
16970;DHT22;8601;48.718;8.992;2023-04-01T18:14:49;8.50;99.90
16970;DHT22;8601;48.718;8.992;2023-04-01T18:17:39;8.40;99.90
16970;DHT22;8601;48.718;8.992;2023-04-01T18:20:22;8.20;99.90
16970;DHT22;8601;48.718;8.992;2023-04-01T18:22:58;8.20;99.90
16970;DHT22;8601;48.718;8.992;2023-04-01T18:25:32;8.10;99.90
16970;DHT22;8601;48.718;8.992;2023-04-01T18:28:17;8.00;99.90
16970;DHT22;8601;48.718;8.992;2023-04-01T18:30:52;8.40;99.90
16970;DHT22;8601;48.718;8.992;2023-04-01T18:33:24;8.10;99.90